Portada
METAR-TAF:

METAR-TAF

Aeropuertos :

Užice, Serbia

latitud: 43-53-56N, longitud: 19-41-52E, altitud: 904 m

Observación

El informe se hizo hace 56 minutos, a las 01:30 UTC
Viento 1 kt con dirección variable
Temperatura 1°C
Humedad 80%
Presión 1010 hPa
Visibilidad 10 km o más
sin nubes por debajo de 1500 m y sin presencia de cumulonimbus.

METAR: LYUZ 030130Z AUTO VRB01KT CAVOK 01/M02 Q1010

Hora: 04:26 (02:26 UTC)

Pronóstico

El informe se hizo hace 3 horas y 26 minutos, a las 23:00 UTC
Pronóstico válido del 03 a las 00 UTC al 03 a las 24 UTC
Viento 6 kt del este
Visibilidad 10 km o más
sin nubes por debajo de 1500 m y sin presencia de cumulonimbus.

TAF: LYUZ 022300Z 0300/0324 09006KT CAVOK TX11/0313Z TNM03/0304Z

Observaciones y pronósticos meteorológicos de más de 4000 aeropuertos (mensajes METAR y TAF).

Los puntos amarillos y rojos representan las estaciones disponibles.

Ponga el ratón en el punto deseado para ver el nombre de la estación.

Haga clic para ver las observaciones y los pronósticos meteorológicos.

Para cambiar el mapa : haga clic en los botones verdes con una cruz de color negro para hacer un zoom, en el botón verde con un guión para alejar o en las flechas verdes para mapas adyacentes.


METAR-TAF: